Time;durP1;ratioP1;P1;durP2;ratioP2;P2;SDS_P1;SDS_P2;PMS_P1;PMS_P2;Temp;Humidity;BMP_temperature;BMP_pressure;BME280_temperature;BME280_humidity;BME280_pressure;Samples;Min_cycle;Max_cycle;Signal;HPM_P1;HPM_P2
2023/06/08 00:02:17;;;;;;;89.97;42.70;;;18.20;99.90;;;;;;4886889;29;20166;-79
2023/06/08 00:04:46;;;;;;;86.17;40.67;;;18.30;99.90;;;;;;4884791;29;20476;-79
2023/06/08 00:07:14;;;;;;;88.13;42.73;;;18.20;99.90;;;;;;4886062;29;20434;-79
2023/06/08 00:09:40;;;;;;;90.00;38.63;;;18.10;99.90;;;;;;4869786;29;20486;-79
2023/06/08 00:12:06;;;;;;;84.37;36.20;;;18.10;99.90;;;;;;4886347;29;20426;-79
2023/06/08 00:14:34;;;;;;;86.23;40.17;;;18.10;99.90;;;;;;4886044;29;20475;-79
2023/06/08 00:17:03;;;;;;;86.80;38.43;;;18.00;99.90;;;;;;4886025;29;20454;-79
2023/06/08 00:19:33;;;;;;;85.27;38.43;;;17.90;99.90;;;;;;4886534;29;20404;-79
2023/06/08 00:22:04;;;;;;;86.57;35.40;;;17.90;99.90;;;;;;4886050;29;20420;-79
2023/06/08 00:24:39;;;;;;;88.00;41.00;;;17.80;99.90;;;;;;4884779;29;20478;-79
2023/06/08 00:27:05;;;;;;;87.87;38.07;;;17.70;99.90;;;;;;4886014;29;20490;-79
2023/06/08 00:29:32;;;;;;;89.77;40.50;;;17.70;99.90;;;;;;4885835;29;20407;-79
2023/06/08 00:31:58;;;;;;;87.57;42.33;;;17.60;99.90;;;;;;4886196;29;20470;-79
2023/06/08 00:34:25;;;;;;;87.87;40.17;;;17.50;99.90;;;;;;4886005;29;20459;-79
2023/06/08 00:36:51;;;;;;;90.63;39.43;;;17.30;99.90;;;;;;4885972;29;20427;-79
2023/06/08 00:39:17;;;;;;;85.77;39.73;;;17.30;99.90;;;;;;4886272;29;20927;-79
2023/06/08 00:41:42;;;;;;;89.20;37.60;;;17.20;99.90;;;;;;4886487;29;20175;-79
2023/06/08 00:44:08;;;;;;;83.67;36.77;;;17.20;99.90;;;;;;4885749;29;20411;-79
2023/06/08 00:46:36;;;;;;;81.83;34.30;;;17.20;99.90;;;;;;4885602;29;20193;-79
2023/06/08 00:49:02;;;;;;;88.10;38.07;;;17.10;99.90;;;;;;4886130;29;20432;-79
2023/06/08 00:51:34;;;;;;;89.33;38.73;;;17.20;99.90;;;;;;4886083;29;20422;-79
2023/06/08 00:54:04;;;;;;;84.50;37.67;;;17.30;99.90;;;;;;4883416;29;20451;-79
2023/06/08 00:56:31;;;;;;;88.07;37.43;;;17.30;99.90;;;;;;4885222;29;20958;-79
2023/06/08 00:59:03;;;;;;;83.67;36.27;;;17.30;99.90;;;;;;4885328;29;20451;-79
2023/06/08 01:01:30;;;;;;;84.30;34.87;;;17.30;99.90;;;;;;4885560;29;20395;-79
2023/06/08 01:04:05;;;;;;;88.20;37.97;;;17.20;99.90;;;;;;4885024;29;20407;-79
2023/06/08 01:07:01;;;;;;;88.17;37.30;;;17.20;99.90;;;;;;4884942;29;20803;-79
2023/06/08 01:09:33;;;;;;;80.77;32.57;;;17.20;99.90;;;;;;4877065;29;20449;-79
2023/06/08 01:12:19;;;;;;;88.67;35.17;;;17.20;99.90;;;;;;4885133;29;20407;-79
2023/06/08 01:14:55;;;;;;;83.53;33.37;;;17.20;99.90;;;;;;4885717;29;20464;-79
2023/06/08 01:17:36;;;;;;;82.77;35.70;;;17.10;99.90;;;;;;4885120;29;20446;-79
2023/06/08 01:20:20;;;;;;;85.13;32.10;;;17.10;99.90;;;;;;4885185;29;20436;-79
2023/06/08 01:23:09;;;;;;;83.10;32.30;;;17.00;99.90;;;;;;4885233;29;20737;-79
2023/06/08 01:25:38;;;;;;;82.90;32.17;;;16.90;99.90;;;;;;4884765;29;20411;-79
2023/06/08 01:28:15;;;;;;;86.73;35.47;;;16.90;99.90;;;;;;4884358;29;20439;-79
2023/06/08 01:30:43;;;;;;;81.30;30.83;;;16.90;99.90;;;;;;4885118;29;20396;-79
2023/06/08 01:33:16;;;;;;;83.60;32.23;;;17.00;99.90;;;;;;4884717;29;20414;-79
2023/06/08 01:35:46;;;;;;;84.87;29.40;;;17.10;99.90;;;;;;4885191;29;20428;-79
2023/06/08 01:38:30;;;;;;;87.20;31.37;;;17.00;99.90;;;;;;4885172;29;20985;-79
2023/06/08 01:41:05;;;;;;;86.93;33.47;;;16.90;99.90;;;;;;4885110;29;20464;-79
2023/06/08 01:43:32;;;;;;;89.40;29.17;;;17.00;99.90;;;;;;4885453;29;20839;-79
2023/06/08 01:46:01;;;;;;;83.00;30.13;;;16.90;99.90;;;;;;4884857;29;20415;-79
2023/06/08 01:48:30;;;;;;;86.70;27.20;;;16.80;99.90;;;;;;4884351;29;20427;-79
2023/06/08 01:50:58;;;;;;;84.03;27.40;;;16.70;99.90;;;;;;4885211;29;20408;-79
2023/06/08 01:53:23;;;;;;;83.93;29.73;;;16.70;99.90;;;;;;4884898;29;20536;-79
2023/06/08 01:55:50;;;;;;;88.63;27.63;;;16.60;99.90;;;;;;4884779;29;20452;-79
2023/06/08 01:58:15;;;;;;;81.50;27.40;;;16.60;99.90;;;;;;4884655;29;20455;-79
2023/06/08 02:00:41;;;;;;;79.47;27.23;;;16.50;99.90;;;;;;4884164;29;20429;-79
2023/06/08 02:03:07;;;;;;;83.17;25.27;;;16.50;99.90;;;;;;4884777;29;20415;-79
2023/06/08 02:05:32;;;;;;;78.30;24.90;;;16.40;99.90;;;;;;4884525;29;20175;-79
2023/06/08 02:07:58;;;;;;;80.97;22.57;;;16.40;99.90;;;;;;4884097;29;20186;-79
2023/06/08 02:10:24;;;;;;;78.10;24.67;;;16.30;99.90;;;;;;4884603;29;20170;-79
2023/06/08 02:12:50;;;;;;;80.83;23.83;;;16.20;99.90;;;;;;4883221;29;20202;-79
2023/06/08 02:15:16;;;;;;;82.60;23.60;;;16.20;99.90;;;;;;4884637;29;20426;-79
2023/06/08 02:17:42;;;;;;;86.27;26.70;;;16.20;99.90;;;;;;4884108;29;20227;-79
2023/06/08 02:20:09;;;;;;;80.40;23.73;;;16.20;99.90;;;;;;4883184;29;20200;-79
2023/06/08 02:22:36;;;;;;;78.97;22.47;;;16.20;99.90;;;;;;4884215;29;20410;-79
2023/06/08 02:25:03;;;;;;;85.37;24.77;;;16.10;99.90;;;;;;4883504;29;20408;-79
2023/06/08 02:27:29;;;;;;;84.50;27.87;;;16.10;99.90;;;;;;4884321;29;20427;-79
2023/06/08 02:29:56;;;;;;;81.93;24.17;;;16.10;99.90;;;;;;4882666;29;20544;-79
2023/06/08 02:32:22;;;;;;;83.03;24.30;;;16.00;99.90;;;;;;4883557;29;20200;-79
2023/06/08 02:34:55;;;;;;;82.37;23.90;;;16.00;99.90;;;;;;4884051;29;20783;-79
2023/06/08 02:37:23;;;;;;;80.90;25.87;;;16.00;99.90;;;;;;4883447;29;20558;-79
2023/06/08 02:39:49;;;;;;;83.80;23.10;;;16.10;99.90;;;;;;4883676;29;20403;-79
2023/06/08 02:42:15;;;;;;;80.80;25.00;;;16.20;99.90;;;;;;4882735;29;20480;-79
2023/06/08 02:44:41;;;;;;;83.37;23.00;;;16.10;99.90;;;;;;4884671;29;20410;-79
2023/06/08 02:47:07;;;;;;;79.40;23.83;;;16.00;99.90;;;;;;4883656;29;20233;-79
2023/06/08 02:49:33;;;;;;;76.90;22.70;;;15.90;99.90;;;;;;4884035;29;20167;-79
2023/06/08 02:51:59;;;;;;;77.33;21.10;;;15.80;99.90;;;;;;4883966;29;20438;-79
2023/06/08 02:54:24;;;;;;;79.47;22.23;;;15.80;99.90;;;;;;4882306;29;20194;-79
2023/06/08 02:56:50;;;;;;;78.97;22.93;;;15.80;99.90;;;;;;4883858;29;20248;-78
2023/06/08 02:59:16;;;;;;;79.07;21.17;;;15.80;99.90;;;;;;4883688;29;20202;-79
2023/06/08 03:01:52;;;;;;;79.97;22.07;;;15.80;99.90;;;;;;4884177;29;20682;-79
2023/06/08 03:04:20;;;;;;;83.00;22.37;;;15.70;99.90;;;;;;4882484;29;20255;-79
2023/06/08 03:06:46;;;;;;;84.73;21.40;;;15.70;99.90;;;;;;4883543;29;20521;-79
2023/06/08 03:09:13;;;;;;;82.37;20.80;;;15.60;99.90;;;;;;4882022;29;20425;-79
2023/06/08 03:11:39;;;;;;;82.27;23.70;;;15.60;99.90;;;;;;4883631;29;20411;-79
2023/06/08 03:14:05;;;;;;;81.90;22.93;;;15.70;99.90;;;;;;4882211;29;20431;-79
2023/06/08 03:16:31;;;;;;;79.90;21.80;;;15.70;99.90;;;;;;4883687;29;20438;-79
2023/06/08 03:18:57;;;;;;;81.30;23.10;;;15.60;99.90;;;;;;4882596;29;20497;-79
2023/06/08 03:21:28;;;;;;;84.90;22.43;;;15.70;99.90;;;;;;4883475;29;20490;-79
2023/06/08 03:23:54;;;;;;;81.17;20.60;;;15.60;99.90;;;;;;4882742;29;20443;-79
2023/06/08 03:26:20;;;;;;;79.60;25.33;;;15.60;99.90;;;;;;4883743;29;20461;-79
2023/06/08 03:28:46;;;;;;;84.53;25.67;;;15.50;99.90;;;;;;4882785;29;20919;-79
2023/06/08 03:31:12;;;;;;;82.97;26.80;;;15.40;99.90;;;;;;4881937;29;20184;-79
2023/06/08 03:33:38;;;;;;;84.17;23.93;;;15.40;99.90;;;;;;4883355;29;20415;-79
2023/06/08 03:36:04;;;;;;;78.60;23.37;;;15.40;99.90;;;;;;4883643;29;20414;-79
2023/06/08 03:38:30;;;;;;;79.40;22.63;;;15.40;99.90;;;;;;4883477;29;20456;-79
2023/06/08 03:40:56;;;;;;;80.57;22.47;;;15.50;99.90;;;;;;4882203;29;20421;-79
2023/06/08 03:43:21;;;;;;;82.13;20.13;;;15.60;99.90;;;;;;4885020;29;20174;-79
2023/06/08 03:45:47;;;;;;;78.23;20.20;;;15.60;99.90;;;;;;4887292;29;20169;-79
2023/06/08 03:48:13;;;;;;;79.87;20.73;;;15.50;99.90;;;;;;4886611;29;20295;-79
2023/06/08 03:50:38;;;;;;;79.63;21.63;;;15.50;99.90;;;;;;4886413;29;20182;-79
2023/06/08 03:53:04;;;;;;;79.27;21.23;;;15.50;99.90;;;;;;4952033;23;21178;-82
2023/06/08 03:55:30;;;;;;;85.87;20.43;;;15.50;99.90;;;;;;4883877;29;20233;-83
2023/06/08 03:57:55;;;;;;;86.37;23.47;;;15.50;99.90;;;;;;4883764;29;20209;-83
2023/06/08 04:00:21;;;;;;;78.47;22.33;;;15.40;99.90;;;;;;4885356;29;20170;-82
2023/06/08 04:02:47;;;;;;;80.37;23.70;;;15.50;99.90;;;;;;4884236;29;20245;-82
2023/06/08 04:05:15;;;;;;;76.97;20.50;;;15.60;99.90;;;;;;4884359;29;20306;-83
2023/06/08 04:07:42;;;;;;;79.47;21.90;;;15.60;99.90;;;;;;4884053;29;20337;-83
2023/06/08 04:10:08;;;;;;;80.17;22.37;;;15.60;99.90;;;;;;4884347;29;20429;-83
2023/06/08 04:12:33;;;;;;;83.17;21.23;;;15.70;99.90;;;;;;4885657;29;20413;-83
2023/06/08 04:15:01;;;;;;;82.03;22.10;;;15.80;99.90;;;;;;4885319;29;20414;-83
2023/06/08 04:17:27;;;;;;;78.53;19.80;;;15.90;99.90;;;;;;4883385;29;20229;-83
2023/06/08 04:19:53;;;;;;;81.27;24.43;;;15.80;99.90;;;;;;4885485;29;20422;-82
2023/06/08 04:22:19;;;;;;;79.73;24.53;;;15.80;99.90;;;;;;4885437;29;20494;-83
2023/06/08 04:24:45;;;;;;;80.10;24.03;;;15.80;99.90;;;;;;4883476;29;20430;-83
2023/06/08 04:27:11;;;;;;;80.90;20.33;;;15.90;99.90;;;;;;4884923;29;20572;-82
2023/06/08 04:29:37;;;;;;;90.30;24.53;;;15.90;99.90;;;;;;4885223;29;20420;-83
2023/06/08 04:32:02;;;;;;;85.33;24.70;;;16.10;99.90;;;;;;4885341;29;20179;-82
2023/06/08 04:34:28;;;;;;;83.77;25.20;;;16.00;99.90;;;;;;4883877;29;20177;-82
2023/06/08 04:36:54;;;;;;;87.27;24.87;;;16.20;99.90;;;;;;4885216;29;20243;-83
2023/06/08 04:39:19;;;;;;;84.17;24.70;;;16.50;99.90;;;;;;4885322;29;20213;-83
2023/06/08 04:41:45;;;;;;;81.70;24.80;;;16.80;99.90;;;;;;4885477;29;20174;-83
2023/06/08 04:44:18;;;;;;;83.90;26.00;;;17.10;99.90;;;;;;4883995;29;20632;-83
2023/06/08 04:46:44;;;;;;;82.27;26.70;;;17.30;99.90;;;;;;4883843;29;20194;-83
2023/06/08 04:49:12;;;;;;;79.70;24.97;;;17.50;99.90;;;;;;4885068;29;20415;-83
2023/06/08 04:51:40;;;;;;;84.03;22.30;;;17.80;99.90;;;;;;4884664;29;20521;-83
2023/06/08 04:54:13;;;;;;;80.90;19.50;;;18.10;99.90;;;;;;4883339;29;20534;-82
2023/06/08 04:56:42;;;;;;;77.30;15.90;;;18.40;99.90;;;;;;4882852;29;20447;-83
2023/06/08 04:59:10;;;;;;;80.53;19.27;;;18.60;99.90;;;;;;4883611;29;20851;-83
2023/06/08 05:01:36;;;;;;;82.97;21.30;;;18.80;99.90;;;;;;4884830;29;20407;-83
2023/06/08 05:04:07;;;;;;;80.70;22.07;;;19.00;99.90;;;;;;4884674;29;20431;-82
2023/06/08 05:06:37;;;;;;;83.17;21.87;;;19.00;99.90;;;;;;4883639;29;20427;-82
2023/06/08 05:09:02;;;;;;;78.80;20.80;;;19.10;99.90;;;;;;4883480;29;20456;-82
2023/06/08 05:11:28;;;;;;;80.93;20.10;;;18.90;99.90;;;;;;4884266;29;20419;-82
2023/06/08 05:13:54;;;;;;;82.20;19.30;;;18.80;99.90;;;;;;4884172;29;20175;-82
2023/06/08 05:16:19;;;;;;;79.13;19.00;;;18.70;99.90;;;;;;4884959;29;20647;-82
2023/06/08 05:18:45;;;;;;;80.80;17.93;;;18.80;99.90;;;;;;4884208;29;20626;-82
2023/06/08 05:21:11;;;;;;;77.87;18.60;;;18.80;99.90;;;;;;4884759;29;20173;-82
2023/06/08 05:23:36;;;;;;;80.77;18.70;;;18.70;99.90;;;;;;4884707;29;20178;-82
2023/06/08 05:26:02;;;;;;;81.73;16.53;;;18.70;99.90;;;;;;4883331;29;20535;-82
2023/06/08 05:28:28;;;;;;;75.93;15.90;;;18.70;99.90;;;;;;4882906;29;20355;-82
2023/06/08 05:30:53;;;;;;;75.90;16.67;;;18.70;99.90;;;;;;4884022;29;20174;-80
2023/06/08 05:33:19;;;;;;;79.70;17.67;;;18.70;99.90;;;;;;4883988;29;20174;-82
2023/06/08 05:35:44;;;;;;;83.03;16.87;;;18.70;99.90;;;;;;4884427;29;20250;-82
2023/06/08 05:38:13;;;;;;;75.57;15.70;;;18.70;99.90;;;;;;4883982;29;20203;-82
2023/06/08 05:40:39;;;;;;;84.80;17.90;;;18.60;99.90;;;;;;4884325;29;20173;-82
2023/06/08 05:43:05;;;;;;;80.47;18.10;;;18.60;99.90;;;;;;4882971;29;20421;-82
2023/06/08 05:45:30;;;;;;;80.77;18.90;;;18.60;99.90;;;;;;4883835;29;20411;-82
2023/06/08 05:47:56;;;;;;;81.23;19.70;;;18.60;99.90;;;;;;4884488;29;20210;-82
2023/06/08 05:50:22;;;;;;;80.77;17.20;;;18.60;99.90;;;;;;4882943;29;20181;-82
2023/06/08 05:52:48;;;;;;;80.87;18.23;;;18.60;99.90;;;;;;4884296;29;20175;-82
2023/06/08 05:55:13;;;;;;;78.50;17.00;;;18.60;99.90;;;;;;4883899;29;20479;-83
2023/06/08 05:57:40;;;;;;;79.97;18.03;;;18.60;99.90;;;;;;4883159;29;20206;-82
2023/06/08 06:00:09;;;;;;;77.63;17.37;;;18.60;99.90;;;;;;4885175;29;20178;-82
2023/06/08 06:02:35;;;;;;;77.87;18.23;;;18.60;99.90;;;;;;4884281;29;20482;-82
2023/06/08 06:05:01;;;;;;;82.10;19.40;;;18.60;99.90;;;;;;4884624;29;20391;-82
2023/06/08 06:07:26;;;;;;;85.43;20.17;;;18.60;99.90;;;;;;4884306;29;20201;-82
2023/06/08 06:09:52;;;;;;;81.37;19.90;;;18.60;99.90;;;;;;4884612;29;20647;-83
2023/06/08 06:12:18;;;;;;;80.50;21.30;;;18.70;99.90;;;;;;4884864;29;20191;-83
2023/06/08 06:14:44;;;;;;;79.90;18.40;;;18.70;99.90;;;;;;4884173;29;20270;-82
2023/06/08 06:17:11;;;;;;;79.07;18.40;;;18.80;99.90;;;;;;4883899;29;20427;-82
2023/06/08 06:19:37;;;;;;;80.80;20.37;;;18.80;99.90;;;;;;4882816;29;20178;-82
2023/06/08 06:22:08;;;;;;;81.70;17.80;;;18.80;99.90;;;;;;4883517;29;20773;-82
2023/06/08 06:24:34;;;;;;;78.80;17.70;;;18.90;99.90;;;;;;4882587;29;20408;-83
2023/06/08 06:27:00;;;;;;;82.00;19.23;;;19.00;99.90;;;;;;4884612;29;20431;-82
2023/06/08 06:29:25;;;;;;;78.00;16.00;;;19.00;99.90;;;;;;4882711;29;20178;-82
2023/06/08 06:31:51;;;;;;;77.77;16.80;;;19.00;99.90;;;;;;4883752;29;20407;-82
2023/06/08 06:34:18;;;;;;;75.60;15.53;;;19.00;99.90;;;;;;4884259;29;20183;-82
2023/06/08 06:36:44;;;;;;;77.13;16.13;;;19.10;99.90;;;;;;4882231;29;20285;-82
2023/06/08 06:39:10;;;;;;;76.23;15.60;;;19.10;99.90;;;;;;4884066;29;20546;-82
2023/06/08 06:41:36;;;;;;;77.67;16.70;;;19.20;99.90;;;;;;4883351;29;20456;-83
2023/06/08 06:44:04;;;;;;;75.00;15.70;;;19.20;99.90;;;;;;4882525;29;20180;-83
2023/06/08 06:46:29;;;;;;;74.30;14.67;;;19.20;99.90;;;;;;4882586;29;20627;-82
2023/06/08 06:48:55;;;;;;;76.80;15.80;;;19.30;99.90;;;;;;4882316;29;20459;-82
2023/06/08 06:51:21;;;;;;;81.43;20.63;;;19.40;99.90;;;;;;4883933;29;20197;-82
2023/06/08 06:53:46;;;;;;;76.80;16.20;;;19.40;99.90;;;;;;4883668;29;20638;-83
2023/06/08 06:56:13;;;;;;;74.83;13.17;;;19.40;99.90;;;;;;4883302;29;20639;-82
2023/06/08 06:58:44;;;;;;;73.07;14.97;;;19.40;99.90;;;;;;4883524;29;20202;-82
2023/06/08 07:01:11;;;;;;;77.20;14.37;;;19.40;99.90;;;;;;4882279;29;20416;-82
2023/06/08 07:03:40;;;;;;;75.20;14.17;;;19.50;99.90;;;;;;4882070;29;20419;-82
2023/06/08 07:06:06;;;;;;;78.50;14.87;;;19.60;99.90;;;;;;4881722;29;20471;-82
2023/06/08 07:08:34;;;;;;;78.40;14.10;;;19.70;99.90;;;;;;4882548;29;20431;-83
2023/06/08 07:11:02;;;;;;;72.20;10.67;;;19.70;99.90;;;;;;4884609;29;20414;-82
2023/06/08 07:13:28;;;;;;;71.87;8.97;;;19.70;94.40;;;;;;4883766;29;20443;-83
2023/06/08 07:15:54;;;;;;;71.60;10.10;;;19.80;95.70;;;;;;4882421;29;20423;-83
2023/06/08 07:18:20;;;;;;;71.73;9.40;;;19.80;94.90;;;;;;4883489;29;20210;-82
2023/06/08 07:20:46;;;;;;;70.77;8.53;;;19.90;83.40;;;;;;4887256;29;20411;-82
2023/06/08 07:23:11;;;;;;;71.20;7.83;;;20.00;90.00;;;;;;4886184;29;20419;-82
2023/06/08 07:25:37;;;;;;;71.57;8.00;;;20.00;63.30;;;;;;4886991;29;20167;-82
2023/06/08 07:28:07;;;;;;;69.57;8.87;;;20.00;76.00;;;;;;4886668;29;20194;-82
2023/06/08 07:30:33;;;;;;;70.40;8.53;;;20.10;87.00;;;;;;4887260;29;20159;-82
2023/06/08 07:33:00;;;;;;;70.70;8.30;;;20.20;56.50;;;;;;4886137;29;20408;-82
2023/06/08 07:35:26;;;;;;;72.20;8.30;;;20.20;42.20;;;;;;4886679;29;20196;-82
2023/06/08 07:37:52;;;;;;;70.97;8.50;;;20.30;52.50;;;;;;4887134;29;20458;-82
2023/06/08 07:40:18;;;;;;;73.87;8.60;;;20.30;34.80;;;;;;4887240;29;20651;-82
2023/06/08 07:42:44;;;;;;;71.03;8.47;;;20.30;49.90;;;;;;4885231;29;20412;-82
2023/06/08 07:45:14;;;;;;;69.97;7.67;;;20.30;45.10;;;;;;4885700;29;20411;-82
2023/06/08 07:47:42;;;;;;;69.07;7.33;;;20.30;41.80;;;;;;4886984;29;20483;-82
2023/06/08 07:50:10;;;;;;;68.47;7.60;;;20.50;44.60;;;;;;4886943;29;20415;-82
2023/06/08 07:52:35;;;;;;;70.07;7.30;;;20.60;30.90;;;;;;4884749;29;20515;-82
2023/06/08 07:55:02;;;;;;;72.43;8.47;;;20.60;35.80;;;;;;4885024;29;20554;-82
2023/06/08 07:57:29;;;;;;;73.63;7.80;;;20.70;30.10;;;;;;4885273;29;20221;-82
2023/06/08 07:59:55;;;;;;;72.33;7.20;;;20.70;48.60;;;;;;4884452;29;20503;-81
2023/06/08 08:02:21;;;;;;;69.67;7.70;;;20.70;45.00;;;;;;4884755;29;20455;-82
2023/06/08 08:04:46;;;;;;;68.73;7.57;;;20.80;35.00;;;;;;4886412;29;20196;-82
2023/06/08 08:07:12;;;;;;;71.37;7.30;;;20.90;39.60;;;;;;4886154;29;20219;-82
2023/06/08 08:09:41;;;;;;;71.43;7.47;;;20.90;42.20;;;;;;4886837;29;20172;-82
2023/06/08 08:12:08;;;;;;;73.63;8.40;;;21.00;37.60;;;;;;4884691;29;20982;-82
2023/06/08 08:14:34;;;;;;;70.47;8.33;;;21.10;39.90;;;;;;4885535;29;20419;-82
2023/06/08 08:16:59;;;;;;;70.43;8.03;;;21.10;33.80;;;;;;4884848;29;20431;-82
2023/06/08 08:19:25;;;;;;;70.10;8.43;;;21.10;30.50;;;;;;4886108;29;20194;-82
2023/06/08 08:21:51;;;;;;;69.10;7.87;;;21.20;38.10;;;;;;4886231;29;20165;-82
2023/06/08 08:24:19;;;;;;;69.90;8.30;;;21.20;37.10;;;;;;4884689;29;20167;-82
2023/06/08 08:26:45;;;;;;;70.63;9.00;;;21.30;29.70;;;;;;4884283;29;20218;-82
2023/06/08 08:29:10;;;;;;;73.93;8.80;;;21.30;23.40;;;;;;4885595;29;20443;-82
2023/06/08 08:31:36;;;;;;;70.37;8.03;;;21.40;33.60;;;;;;4883543;29;20177;-81
2023/06/08 08:34:02;;;;;;;69.90;8.33;;;21.50;31.20;;;;;;4884123;29;20185;-82
2023/06/08 08:36:28;;;;;;;70.90;8.40;;;21.50;28.40;;;;;;4884754;29;20199;-82
2023/06/08 08:38:54;;;;;;;74.03;9.17;;;21.60;18.80;;;;;;4885526;29;20453;-82
2023/06/08 08:41:20;;;;;;;70.47;8.93;;;21.50;15.50;;;;;;4885527;29;20173;-81
2023/06/08 08:44:08;;;;;;;70.13;8.27;;;21.60;20.20;;;;;;4885378;29;20415;-82
2023/06/08 08:46:34;;;;;;;71.57;8.90;;;21.60;25.40;;;;;;4885534;29;20789;-81
2023/06/08 08:49:04;;;;;;;70.97;8.50;;;21.70;14.50;;;;;;4885294;29;20776;-82
2023/06/08 08:51:32;;;;;;;69.07;7.77;;;21.70;19.50;;;;;;4885512;29;20394;-81
2023/06/08 08:54:02;;;;;;;69.80;8.60;;;21.90;22.00;;;;;;4884318;29;20442;-80
2023/06/08 08:56:30;;;;;;;70.03;8.20;;;21.90;19.60;;;;;;4885686;29;20499;-81
2023/06/08 08:58:57;;;;;;;70.17;8.47;;;22.00;22.00;;;;;;4883491;29;20458;-82
2023/06/08 09:01:24;;;;;;;69.07;7.33;;;22.10;15.80;;;;;;4884779;29;20400;-82
2023/06/08 09:03:50;;;;;;;73.87;9.13;;;22.10;19.40;;;;;;4883894;29;20747;-82
2023/06/08 09:06:16;;;;;;;72.30;8.40;;;22.30;12.60;;;;;;4885184;29;20471;-81
2023/06/08 09:08:41;;;;;;;69.77;7.67;;;22.40;8.70;;;;;;4884921;29;20189;-81
2023/06/08 09:11:09;;;;;;;71.37;9.13;;;22.40;7.80;;;;;;4884924;29;20182;-81
2023/06/08 09:13:36;;;;;;;70.63;8.27;;;22.50;6.80;;;;;;4883544;29;20179;-81
2023/06/08 09:16:09;;;;;;;70.10;7.77;;;22.60;1.00;;;;;;4883112;29;20423;-82
2023/06/08 09:18:38;;;;;;;80.13;9.63;;;22.60;1.00;;;;;;4884642;29;20455;-82
2023/06/08 09:21:23;;;;;;;71.90;9.10;;;22.60;1.00;;;;;;4883340;29;20422;-81
2023/06/08 09:24:18;;;;;;;72.07;8.27;;;22.80;1.00;;;;;;4884622;29;20415;-81
2023/06/08 09:26:48;;;;;;;70.60;9.60;;;23.00;4.60;;;;;;4884016;29;20983;-82
2023/06/08 09:29:40;;;;;;;71.13;9.73;;;23.20;1.00;;;;;;4884577;29;20415;-81
2023/06/08 09:32:12;;;;;;;71.27;9.23;;;23.20;1.00;;;;;;4884200;29;20391;-81
2023/06/08 09:35:13;;;;;;;71.70;9.90;;;23.50;1.00;;;;;;4884728;29;20610;-81
2023/06/08 09:37:39;;;;;;;70.37;11.47;;;23.80;1.00;;;;;;4882368;29;20467;-81
2023/06/08 09:40:08;;;;;;;72.23;15.83;;;23.80;1.00;;;;;;4882503;29;20784;-81
2023/06/08 09:42:44;;;;;;;70.57;9.33;;;24.00;1.00;;;;;;4883207;29;20408;-81
2023/06/08 09:45:15;;;;;;;74.37;9.77;;;24.00;1.00;;;;;;4883525;29;20903;-81
2023/06/08 09:47:42;;;;;;;73.17;16.80;;;24.20;1.00;;;;;;4883787;29;20431;-82
2023/06/08 09:50:09;;;;;;;71.10;11.90;;;24.50;1.00;;;;;;4884219;29;20411;-81
2023/06/08 09:52:36;;;;;;;77.57;13.80;;;24.80;1.00;;;;;;4884169;29;20439;-82
2023/06/08 09:55:03;;;;;;;75.33;21.03;;;25.00;1.00;;;;;;4895692;23;20491;-82
2023/06/08 09:57:37;;;;;;;78.27;27.93;;;25.30;1.00;;;;;;4881351;29;20819;-82
2023/06/08 10:00:17;;;;;;;75.37;20.40;;;25.30;1.00;;;;;;4881949;29;20479;-82
2023/06/08 10:03:07;;;;;;;74.60;17.87;;;25.30;1.00;;;;;;4881306;29;20471;-82
2023/06/08 10:05:39;;;;;;;78.50;29.10;;;25.10;1.00;;;;;;4881678;29;20396;-82
2023/06/08 10:08:07;;;;;;;73.30;15.70;;;25.40;1.00;;;;;;4880330;29;20440;-82
2023/06/08 10:10:35;;;;;;;71.87;10.77;;;25.60;1.00;;;;;;4881685;29;20416;-82
2023/06/08 10:13:01;;;;;;;72.03;10.97;;;25.80;1.00;;;;;;4881312;29;20771;-83
2023/06/08 10:15:33;;;;;;;73.87;11.47;;;26.10;1.00;;;;;;4881099;29;20451;-82
2023/06/08 10:18:00;;;;;;;72.27;11.00;;;26.30;1.00;;;;;;4881301;29;20869;-83
2023/06/08 10:20:27;;;;;;;70.97;9.97;;;26.30;1.00;;;;;;4881313;29;20406;-82
2023/06/08 10:22:53;;;;;;;72.07;10.37;;;26.40;1.00;;;;;;4881312;29;20419;-82
2023/06/08 10:25:20;;;;;;;72.23;10.87;;;26.40;1.00;;;;;;4881104;29;20772;-82
2023/06/08 10:27:50;;;;;;;72.50;11.30;;;26.80;1.00;;;;;;4879668;29;20439;-82
2023/06/08 10:30:30;;;;;;;72.43;11.97;;;27.00;1.00;;;;;;4881294;29;20404;-82
2023/06/08 10:33:20;;;;;;;72.40;11.63;;;27.20;1.00;;;;;;4881844;29;20430;-83
2023/06/08 10:36:06;;;;;;;70.77;9.77;;;27.20;1.00;;;;;;4883972;29;20454;-83
2023/06/08 10:38:41;;;;;;;72.37;11.37;;;27.10;1.00;;;;;;4885018;29;20527;-83
2023/06/08 10:41:07;;;;;;;72.13;10.93;;;27.40;1.00;;;;;;4884469;29;20407;-83
2023/06/08 10:43:35;;;;;;;74.30;11.63;;;27.70;1.00;;;;;;4884237;29;20427;-83
2023/06/08 10:46:03;;;;;;;72.00;11.70;;;27.90;1.00;;;;;;4885588;29;20200;-83
2023/06/08 10:48:39;;;;;;;72.10;11.27;;;27.40;1.00;;;;;;4886023;29;20520;-83
2023/06/08 10:51:10;;;;;;;72.87;10.63;;;27.20;1.00;;;;;;4885917;29;20514;-83
2023/06/08 10:53:57;;;;;;;71.70;10.00;;;27.30;1.00;;;;;;4887127;29;20435;-83
2023/06/08 10:56:27;;;;;;;71.10;10.30;;;27.50;1.00;;;;;;4888791;29;20464;-83
2023/06/08 10:58:52;;;;;;;72.27;10.67;;;27.70;1.00;;;;;;4889011;29;20482;-83
2023/06/08 11:01:20;;;;;;;72.30;11.47;;;27.80;1.00;;;;;;4888325;29;20426;-83
2023/06/08 11:03:49;;;;;;;74.10;12.40;;;28.10;1.00;;;;;;4889084;29;20231;-83
2023/06/08 11:06:15;;;;;;;75.63;12.43;;;28.00;1.00;;;;;;4888711;29;20442;-83
2023/06/08 11:08:41;;;;;;;76.83;12.30;;;28.50;1.00;;;;;;4889483;29;20463;-83
2023/06/08 11:11:09;;;;;;;72.80;11.30;;;28.90;1.00;;;;;;4887420;29;20833;-83
2023/06/08 11:13:35;;;;;;;71.90;9.23;;;28.90;1.00;;;;;;4888649;29;20202;-83
2023/06/08 11:16:01;;;;;;;71.87;10.20;;;28.70;1.00;;;;;;4887023;29;20411;-83
2023/06/08 11:18:30;;;;;;;73.87;10.23;;;28.40;1.00;;;;;;4886168;29;20342;-83
2023/06/08 11:20:58;;;;;;;73.67;10.33;;;28.10;1.00;;;;;;4884644;29;20261;-83
2023/06/08 11:23:24;;;;;;;71.17;10.00;;;27.40;1.00;;;;;;4885791;29;20767;-83
2023/06/08 11:25:51;;;;;;;72.57;11.17;;;27.10;1.00;;;;;;4885624;29;20403;-83
2023/06/08 11:28:17;;;;;;;71.77;10.73;;;26.80;1.00;;;;;;4883915;29;20198;-83
2023/06/08 11:30:43;;;;;;;72.60;11.63;;;27.20;1.00;;;;;;4885635;29;20502;-83
2023/06/08 11:33:17;;;;;;;73.60;11.03;;;27.20;1.00;;;;;;4885653;29;20414;-83
2023/06/08 11:35:43;;;;;;;72.07;9.97;;;26.90;1.00;;;;;;4885048;29;20407;-83
2023/06/08 11:38:09;;;;;;;73.77;11.93;;;26.90;1.00;;;;;;4883239;29;20481;-83
2023/06/08 11:40:38;;;;;;;72.83;11.17;;;26.70;1.00;;;;;;4885311;29;20412;-83
2023/06/08 11:43:04;;;;;;;72.00;10.83;;;26.50;1.00;;;;;;4883759;29;20189;-83
2023/06/08 11:45:33;;;;;;;72.40;10.37;;;26.30;1.00;;;;;;4884961;29;20439;-83
2023/06/08 11:47:58;;;;;;;72.90;11.07;;;26.10;1.00;;;;;;4884279;29;20438;-83
2023/06/08 11:50:24;;;;;;;73.20;12.00;;;26.30;1.00;;;;;;4884375;29;20494;-82
2023/06/08 11:52:50;;;;;;;73.10;11.17;;;26.80;1.00;;;;;;4884359;29;20203;-83
2023/06/08 11:55:22;;;;;;;74.67;13.57;;;27.30;1.00;;;;;;4882911;29;20194;-83
2023/06/08 11:57:53;;;;;;;74.80;14.60;;;27.10;1.00;;;;;;4884301;29;20462;-83
2023/06/08 12:00:29;;;;;;;73.63;12.80;;;27.30;1.00;;;;;;4884210;29;20403;-83
2023/06/08 12:02:56;;;;;;;73.00;12.30;;;27.40;1.00;;;;;;4884456;29;20379;-83
2023/06/08 12:05:24;;;;;;;71.87;11.30;;;27.40;1.00;;;;;;4884030;29;20404;-83
2023/06/08 12:07:54;;;;;;;73.10;11.23;;;27.10;1.00;;;;;;4884322;29;20434;-82
2023/06/08 12:10:21;;;;;;;72.90;9.97;;;27.20;1.00;;;;;;5152644;23;20494;-83
2023/06/08 12:12:49;;;;;;;71.77;10.87;;;27.40;1.00;;;;;;5083908;23;20853;-82
2023/06/08 12:15:17;;;;;;;73.20;9.83;;;27.70;1.00;;;;;;4882507;29;20425;-82
2023/06/08 12:17:43;;;;;;;72.50;10.40;;;28.00;1.00;;;;;;4883932;29;20531;-82
2023/06/08 12:20:09;;;;;;;71.80;6.90;;;28.30;1.00;;;;;;4883828;29;20499;-82
2023/06/08 12:22:35;;;;;;;73.93;8.33;;;28.70;1.00;;;;;;4883799;29;20407;-82
2023/06/08 12:25:01;;;;;;;72.40;11.27;;;29.10;1.00;;;;;;4884543;29;20459;-82
2023/06/08 12:27:29;;;;;;;73.70;11.10;;;29.50;1.00;;;;;;4882788;29;20586;-83
2023/06/08 12:29:56;;;;;;;75.00;6.53;;;29.80;1.00;;;;;;4882562;29;20171;-83
2023/06/08 12:32:23;;;;;;;71.07;6.90;;;29.50;1.00;;;;;;4884712;29;20801;-83
2023/06/08 12:34:48;;;;;;;73.90;7.17;;;29.00;1.00;;;;;;4884710;29;20411;-83
2023/06/08 12:37:14;;;;;;;71.30;7.27;;;28.70;1.00;;;;;;4883946;29;20546;-82
2023/06/08 12:39:40;;;;;;;72.57;8.53;;;28.60;1.00;;;;;;4884485;29;20182;-83